Aérodrome :
LOGIN :

S'inscrire | Disclaimer

   EN    FR    IT 

 










Légende :    VFR   VFR Marginal   IFR   IFR Intensif   IFR Très Intensif
Visi : 
Plafond : 
>= 8 km
>= 3000ft
5 à 8 km
1000 à 3000 ft
1500m à 5 km
500 à 1000 ft
800 à 1500m
200 à 500 ft
< 800m
< 200 ft
Symboles :   Orages  Brouillard  Fortes neiges  Fortes précipitations  Vent > 20 kt
SIGMETs :   Divers  Orages  Givrage  Turbulence  Onde Orograph.  Cendres Volcan.






- Altitude de l'aérodrome : 468 ft
- Code IATA : GRO


LEGE - Girona Costa Brava

DERNIER METAR :
  • 022200Z VRB01KT 9999 SCT050 18/16 Q1013

METARs EXPIRÉS :
  • 022130Z 00000KT 9999 SCT050 18/16 Q1014
  • 022100Z 27002KT 9999 SCT050 19/17 Q1014
  • 022030Z VRB02KT 9999 SCT050 19/16 Q1014
  • 022000Z 16003KT 9999 SCT050 20/16 Q1014
  • 021930Z 20003KT 170V230 9999 SCT050 19/16 Q1014

TAF TAF LEGE
Valide du 02 à 18h jusqu'au 03 à 18h UTC


021700Z 0218/0318 VRB04KT 9999 SCT030 TX25/0312Z TN16/0306Z
PROB40
TEMPO 0218/0220 4000 SHRA TS FEW020CB
PROB40
TEMPO 0300/0306 3000 BR
BECMG 0309/0311 17012KT



MET'MAP, la Météo Aéronautique d'un coup d'oeil ! - Copyright ORBIFLY Décembre 2007 - Disclaimer

ORBIFLY MET'MAP TEAM :

Programmation & Développement : Alexandra Zaïnal
Sur une idée originale de : Baudouin d'Aumeries
Assistance à la programmation : Marc-Olivier Méhu
Soutien technique & logistique : Manuel Goepfert

Contact : metmap@orbifly.com




SOURCES & CREDITS :

   NOAA